Time;durP1;ratioP1;P1;durP2;ratioP2;P2;SDS_P1;SDS_P2;PMS_P1;PMS_P2;Temp;Humidity;BMP_temperature;BMP_pressure;BME280_temperature;BME280_humidity;BME280_pressure;Samples;Min_cycle;Max_cycle;Signal;HPM_P1;HPM_P2
2023/04/07 00:01:02;;;;;;;;;76.00;61.00;;;;;3.15;100.00;99332.97;6311012;20;2864903;-59
2023/04/07 00:03:32;;;;;;;;;79.33;60.00;;;;;3.18;100.00;99319.59;6280397;20;3650272;-59
2023/04/07 00:06:02;;;;;;;;;75.00;57.33;;;;;3.16;100.00;99324.09;6308866;20;2883645;-59
2023/04/07 00:08:32;;;;;;;;;77.67;58.00;;;;;3.15;100.00;99317.91;6311432;20;3649238;-59
2023/04/07 00:11:01;;;;;;;;;78.00;57.33;;;;;3.00;100.00;99318.47;6310316;20;3629434;-59
2023/04/07 00:13:31;;;;;;;;;80.33;59.00;;;;;3.01;100.00;99317.59;6310867;20;3659648;-59
2023/04/07 00:16:01;;;;;;;;;77.67;57.33;;;;;2.92;100.00;99316.09;6313295;20;3639838;-60
2023/04/07 00:18:30;;;;;;;;;76.33;57.67;;;;;2.98;100.00;99313.25;6313497;20;3625261;-59
2023/04/07 00:21:00;;;;;;;;;68.00;55.33;;;;;2.97;100.00;99308.00;6311296;20;2877471;-59
2023/04/07 00:23:30;;;;;;;;;77.00;57.00;;;;;2.97;100.00;99308.00;6308770;20;3624388;-58
2023/04/07 00:26:00;;;;;;;;;76.00;58.67;;;;;3.18;100.00;99295.72;6311841;20;3636210;-59
2023/04/07 00:28:29;;;;;;;;;77.33;55.33;;;;;3.11;100.00;99305.72;6307600;20;3647160;-59
2023/04/07 00:31:00;;;;;;;;;74.00;55.00;;;;;3.32;100.00;99308.47;6311361;20;3645058;-59
2023/04/07 00:33:30;;;;;;;;;77.00;58.33;;;;;3.01;100.00;99304.31;6313505;20;2879623;-60
2023/04/07 00:35:59;;;;;;;;;78.00;60.67;;;;;2.99;100.00;99303.50;6309921;20;2868109;-59
2023/04/07 00:38:30;;;;;;;;;79.67;58.67;;;;;2.83;100.00;99309.38;6312550;20;3658576;-59
2023/04/07 00:41:00;;;;;;;;;69.00;53.00;;;;;2.98;100.00;99307.09;6309328;20;2876333;-59
2023/04/07 00:43:30;;;;;;;;;79.67;59.33;;;;;2.93;100.00;99303.75;6311170;20;3634646;-59
2023/04/07 00:46:00;;;;;;;;;71.67;57.00;;;;;2.95;100.00;99301.88;6307223;20;2879479;-59
2023/04/07 00:48:30;;;;;;;;;82.00;61.67;;;;;3.00;100.00;99292.84;6309816;20;3642963;-59
2023/04/07 00:51:00;;;;;;;;;79.33;60.33;;;;;2.87;100.00;99296.88;6307448;20;2890036;-58
2023/04/07 00:53:29;;;;;;;;;73.00;57.33;;;;;2.83;100.00;99296.09;6311075;20;3625274;-59
2023/04/07 00:55:59;;;;;;;;;78.00;59.67;;;;;2.75;100.00;99292.88;6311944;20;2873292;-59
2023/04/07 00:58:29;;;;;;;;;77.33;58.33;;;;;2.95;100.00;99293.91;6307542;20;3638923;-59
2023/04/07 01:01:14;;;;;;;;;75.67;56.67;;;;;2.93;100.00;99287.84;6308407;20;3638830;-59
2023/04/07 01:04:09;;;;;;;;;80.33;60.00;;;;;2.81;100.00;99284.69;6309483;20;3661789;-59
2023/04/07 01:06:46;;;;;;;;;79.50;62.50;;;;;2.96;100.00;99280.63;6279117;20;2876475;-60
2023/04/07 01:09:36;;;;;;;;;82.00;61.33;;;;;2.84;100.00;99275.75;6281754;20;3631496;-59
2023/04/07 01:12:30;;;;;;;;;82.67;62.00;;;;;2.88;100.00;99268.56;6315454;20;3644009;-59
2023/04/07 01:15:08;;;;;;;;;75.33;59.67;;;;;2.80;100.00;99274.16;6317623;20;3628512;-59
2023/04/07 01:17:48;;;;;;;;;84.33;61.67;;;;;2.84;100.00;99271.34;6315624;20;3640994;-59
2023/04/07 01:20:22;;;;;;;;;74.33;60.67;;;;;2.96;100.00;99274.47;6313087;20;2862860;-59
2023/04/07 01:23:03;;;;;;;;;80.33;60.00;;;;;2.99;100.00;99279.66;6313381;20;3635710;-59
2023/04/07 01:25:58;;;;;;;;;76.00;60.50;;;;;3.03;100.00;99278.63;6315434;20;2848194;-59
2023/04/07 01:28:43;;;;;;;;;81.67;62.00;;;;;2.84;100.00;99276.66;6282420;20;3641962;-58
2023/04/07 01:31:16;;;;;;;;;81.67;63.67;;;;;2.94;100.00;99281.59;6314291;20;3629416;-58
2023/04/07 01:33:47;;;;;;;;;83.33;61.33;;;;;2.96;100.00;99280.63;6316202;20;3636732;-59
2023/04/07 01:36:18;;;;;;;;;80.67;62.33;;;;;2.96;100.00;99275.31;6313904;20;3639974;-59
2023/04/07 01:38:50;;;;;;;;;88.67;64.67;;;;;2.75;100.00;99266.38;6312141;20;3652368;-60
2023/04/07 01:41:22;;;;;;;;;86.33;63.67;;;;;2.74;100.00;99269.06;6311977;20;3643770;-59
2023/04/07 01:43:54;;;;;;;;;81.33;63.67;;;;;2.69;100.00;99274.56;6311630;20;3628467;-59
2023/04/07 01:46:24;;;;;;;;;84.67;64.33;;;;;2.84;100.00;99260.75;6310364;20;3638789;-59
2023/04/07 01:48:56;;;;;;;;;80.33;63.00;;;;;3.01;100.00;99261.91;6310397;20;3629559;-60
2023/04/07 01:51:28;;;;;;;;;81.00;61.33;;;;;3.02;100.00;99271.56;6309957;20;2890067;-60
2023/04/07 01:53:59;;;;;;;;;79.00;59.00;;;;;2.73;100.00;99268.19;6310528;20;2825346;-59
2023/04/07 01:56:29;;;;;;;;;84.67;63.33;;;;;2.75;100.00;99265.50;6281765;20;2897353;-59
2023/04/07 01:58:59;;;;;;;;;83.33;65.00;;;;;2.80;100.00;99272.38;6315011;20;3637825;-59
2023/04/07 02:01:29;;;;;;;;;94.00;65.67;;;;;2.87;100.00;99265.06;6312337;20;3673249;-59
2023/04/07 02:04:31;;;;;;;;;85.33;63.33;;;;;2.95;100.00;99267.41;6315444;20;3644100;-59
2023/04/07 02:07:41;;;;;;;;;84.33;63.67;;;;;2.96;100.00;99255.91;6313189;20;3640887;-59
2023/04/07 02:10:15;;;;;;;;;80.33;60.33;;;;;2.78;100.00;99262.75;6314419;20;2877576;-59
2023/04/07 02:12:47;;;;;;;;;86.67;66.00;;;;;2.87;100.00;99259.78;6310247;20;3648142;-59
2023/04/07 02:15:19;;;;;;;;;91.67;66.67;;;;;2.78;100.00;99260.09;6313517;20;3664825;-59
2023/04/07 02:17:53;;;;;;;;;82.33;60.67;;;;;2.67;100.00;99252.53;6276615;20;3642983;-59
2023/04/07 02:20:24;;;;;;;;;86.33;63.67;;;;;2.69;100.00;99261.31;6310351;20;3631523;-60
2023/04/07 02:22:54;;;;;;;;;88.00;72.00;;;;;2.66;100.00;99264.06;6313409;20;2778477;-59
2023/04/07 02:25:31;;;;;;;;;88.00;62.00;;;;;2.71;100.00;99261.22;6279810;20;3646110;-59
2023/04/07 02:28:00;;;;;;;;;79.00;64.00;;;;;2.87;100.00;99259.78;6312450;20;2873216;-60
2023/04/07 02:30:31;;;;;;;;;90.00;65.33;;;;;3.02;100.00;99263.59;6281516;20;3674325;-59
2023/04/07 02:33:01;;;;;;;;;90.00;67.67;;;;;2.98;100.00;99262.88;6279265;20;3666011;-59
2023/04/07 02:35:31;;;;;;;;;90.33;67.67;;;;;2.70;100.00;99263.00;6279194;20;3666920;-59
2023/04/07 02:38:00;;;;;;;;;87.00;63.33;;;;;2.75;100.00;99261.06;6281833;20;2898264;-60
2023/04/07 02:40:30;;;;;;;;;84.33;66.33;;;;;2.82;100.00;99257.28;6309518;20;3640366;-59
2023/04/07 02:43:00;;;;;;;;;92.00;71.00;;;;;2.74;100.00;99259.34;6316008;20;3661726;-59
2023/04/07 02:45:30;;;;;;;;;90.67;69.33;;;;;2.71;100.00;99258.56;6281285;20;3674220;-59
2023/04/07 02:48:00;;;;;;;;;88.00;68.33;;;;;2.73;100.00;99262.03;6278098;20;3651328;-60
2023/04/07 02:50:29;;;;;;;;;86.67;63.33;;;;;2.81;100.00;99265.28;6311071;20;3655495;-59
2023/04/07 02:52:59;;;;;;;;;82.67;61.67;;;;;2.65;100.00;99267.63;6315439;20;3663803;-59
2023/04/07 02:55:29;;;;;;;;;88.00;69.33;;;;;2.81;100.00;99267.91;6278797;20;3657550;-59
2023/04/07 02:57:59;;;;;;;;;89.00;67.67;;;;;2.79;100.00;99261.81;6315434;20;3660726;-60
2023/04/07 03:00:28;;;;;;;;;86.67;64.67;;;;;2.73;100.00;99264.69;6313096;20;3636750;-59
2023/04/07 03:02:58;;;;;;;;;90.67;66.67;;;;;2.63;100.00;99267.69;6311824;20;3663279;-59
2023/04/07 03:05:28;;;;;;;;;88.00;65.00;;;;;2.73;100.00;99262.91;6311508;20;3646139;-60
2023/04/07 03:07:58;;;;;;;;;85.67;65.00;;;;;2.63;100.00;99262.38;6309133;20;3649275;-59
2023/04/07 03:10:27;;;;;;;;;86.33;64.00;;;;;2.67;100.00;99256.97;6308887;20;3652366;-60
2023/04/07 03:12:57;;;;;;;;;91.33;67.33;;;;;2.95;100.00;99254.16;6312419;20;3672211;-59
2023/04/07 03:15:27;;;;;;;;;98.00;80.00;;;;;2.84;100.00;99255.44;6280509;20;3665906;-59
2023/04/07 03:17:56;;;;;;;;;108.00;84.33;;;;;2.72;100.00;99255.88;6280729;20;3699202;-59
2023/04/07 03:20:26;;;;;;;;;99.00;82.33;;;;;2.74;100.00;99267.31;6280994;20;3660655;-59
2023/04/07 03:22:56;;;;;;;;;96.67;72.67;;;;;2.61;100.00;99264.22;6279076;20;3671086;-59
2023/04/07 03:25:26;;;;;;;;;97.33;78.67;;;;;2.74;100.00;99263.75;6282226;20;3659649;-59
2023/04/07 03:27:56;;;;;;;;;95.33;73.67;;;;;2.69;100.00;99265.75;6275734;20;3660677;-59
2023/04/07 03:30:26;;;;;;;;;89.33;66.33;;;;;2.76;100.00;99261.94;6277816;20;3667959;-60
2023/04/07 03:32:55;;;;;;;;;86.33;65.33;;;;;2.88;100.00;99269.44;6314539;20;3643996;-58
2023/04/07 03:35:26;;;;;;;;;91.33;68.33;;;;;2.90;100.00;99270.25;6314946;20;3661695;-60
2023/04/07 03:37:55;;;;;;;;;95.33;73.67;;;;;3.01;100.00;99275.16;6278563;20;3668988;-59
2023/04/07 03:40:25;;;;;;;;;89.00;66.33;;;;;2.94;100.00;99273.66;6312195;20;3662881;-59
2023/04/07 03:42:55;;;;;;;;;92.67;73.67;;;;;2.69;100.00;99266.59;6277323;20;3666886;-59
2023/04/07 03:45:25;;;;;;;;;95.00;72.67;;;;;2.70;100.00;99268.31;6277029;20;3680424;-59
2023/04/07 03:47:54;;;;;;;;;87.33;66.00;;;;;2.63;100.00;99277.41;6280314;20;3647259;-60
2023/04/07 03:50:24;;;;;;;;;87.33;67.67;;;;;2.62;100.00;99275.69;6310964;20;3657555;-60
2023/04/07 03:52:54;;;;;;;;;91.67;72.33;;;;;2.75;100.00;99282.28;6312236;20;3672115;-59
2023/04/07 03:55:24;;;;;;;;;95.00;73.33;;;;;2.65;100.00;99275.56;6278566;20;3672120;-58
2023/04/07 03:57:54;;;;;;;;;99.33;80.67;;;;;2.79;100.00;99278.59;6278741;20;3682509;-59
2023/04/07 04:00:25;;;;;;;;;83.67;61.33;;;;;2.67;100.00;99283.47;6278939;20;3652420;-59
2023/04/07 04:02:55;;;;;;;;;91.33;66.33;;;;;2.79;100.00;99285.66;6308788;20;3671164;-59
2023/04/07 04:05:25;;;;;;;;;88.33;69.67;;;;;2.84;100.00;99297.84;6277866;20;3656489;-59
2023/04/07 04:07:55;;;;;;;;;85.00;62.67;;;;;2.74;100.00;99296.47;6312319;20;3646067;-59
2023/04/07 04:10:25;;;;;;;;;87.67;66.00;;;;;2.67;100.00;99296.72;6311319;20;3663797;-59
2023/04/07 04:12:54;;;;;;;;;91.33;71.33;;;;;2.75;100.00;99290.22;6277871;20;3659598;-59
2023/04/07 04:15:23;;;;;;;;;79.00;63.50;;;;;2.98;100.00;99293.84;6278279;20;2860676;-59
2023/04/07 04:17:53;;;;;;;;;85.67;65.00;;;;;2.91;100.00;99293.19;6281549;20;3640901;-60
2023/04/07 04:20:23;;;;;;;;;88.33;61.33;;;;;2.86;100.00;99301.28;6308919;20;3649239;-60
2023/04/07 04:22:52;;;;;;;;;85.33;64.00;;;;;2.82;100.00;99294.38;6310125;20;3638787;-59
2023/04/07 04:25:23;;;;;;;;;86.00;64.67;;;;;2.88;100.00;99295.09;6311807;20;3659634;-59
2023/04/07 04:27:52;;;;;;;;;83.00;64.33;;;;;2.82;100.00;99297.03;6310886;20;3614840;-59
2023/04/07 04:30:22;;;;;;;;;87.67;68.00;;;;;2.74;100.00;99300.88;6312154;20;3660174;-59
2023/04/07 04:32:52;;;;;;;;;87.00;64.33;;;;;2.74;100.00;99290.25;6312364;20;3637902;-60
2023/04/07 04:35:22;;;;;;;;;85.33;64.33;;;;;2.90;100.00;99301.19;6308034;20;3659751;-59
2023/04/07 04:37:51;;;;;;;;;87.00;65.00;;;;;2.80;100.00;99298.88;6311208;20;3654490;-59
2023/04/07 04:40:21;;;;;;;;;86.33;65.33;;;;;2.80;100.00;99303.31;6305349;20;3659799;-59
2023/04/07 04:42:51;;;;;;;;;89.33;65.00;;;;;2.77;100.00;99303.44;6313173;20;3658620;-58
2023/04/07 04:45:20;;;;;;;;;84.00;64.67;;;;;2.88;100.00;99308.34;6312092;20;3638855;-59
2023/04/07 04:47:50;;;;;;;;;83.67;66.33;;;;;2.75;100.00;99303.47;6311315;20;3648414;-60
2023/04/07 04:50:20;;;;;;;;;85.00;63.00;;;;;2.83;100.00;99300.56;6309523;20;3642044;-60
2023/04/07 04:52:50;;;;;;;;;87.00;62.33;;;;;2.62;100.00;99307.47;6311617;20;3641927;-59
2023/04/07 04:55:19;;;;;;;;;83.00;63.00;;;;;2.93;100.00;99312.56;6311667;20;3632593;-59
2023/04/07 04:57:49;;;;;;;;;87.67;66.67;;;;;2.83;100.00;99316.47;6312146;20;3663898;-60
2023/04/07 05:00:20;;;;;;;;;86.00;64.00;;;;;2.88;100.00;99314.50;6308405;20;3635721;-60
2023/04/07 05:02:49;;;;;;;;;89.00;69.33;;;;;2.97;100.00;99314.16;6311231;20;3664821;-59
2023/04/07 05:05:19;;;;;;;;;87.00;67.00;;;;;3.17;100.00;99313.44;6284316;20;3650251;-58
2023/04/07 05:07:49;;;;;;;;;86.33;66.33;;;;;3.22;100.00;99311.47;6311548;20;3653396;-58
2023/04/07 05:10:19;;;;;;;;;84.00;62.67;;;;;3.15;100.00;99317.91;6308126;20;3651339;-59
2023/04/07 05:12:49;;;;;;;;;86.33;65.00;;;;;3.13;100.00;99314.47;6307041;20;3678483;-58
2023/04/07 05:15:19;;;;;;;;;88.00;68.33;;;;;3.16;100.00;99313.47;6311121;20;3649181;-58
2023/04/07 05:17:49;;;;;;;;;85.67;67.00;;;;;3.29;100.00;99315.63;6311226;20;3646129;-59
2023/04/07 05:20:19;;;;;;;;;79.00;63.00;;;;;3.35;100.00;99319.84;6305284;20;2861813;-60
2023/04/07 05:22:48;;;;;;;;;81.00;64.00;;;;;3.28;100.00;99321.00;6311372;20;3630555;-59
2023/04/07 05:25:18;;;;;;;;;81.00;62.00;;;;;3.35;100.00;99324.28;6306085;20;3625314;-59
2023/04/07 05:27:48;;;;;;;;;82.00;63.33;;;;;3.26;100.00;99331.66;6306952;20;3634730;-60
2023/04/07 05:30:17;;;;;;;;;82.00;62.00;;;;;3.21;100.00;99325.69;6309125;20;3633585;-59
2023/04/07 05:32:47;;;;;;;;;81.33;61.67;;;;;3.26;100.00;99336.09;6307901;20;3645094;-59
2023/04/07 05:35:17;;;;;;;;;88.00;65.00;;;;;3.35;100.00;99334.91;6305000;20;3660800;-60
2023/04/07 05:37:47;;;;;;;;;78.33;59.00;;;;;3.52;100.00;99341.28;6311991;20;2890052;-59
2023/04/07 05:40:17;;;;;;;;;84.33;64.33;;;;;3.49;100.00;99333.44;6308441;20;3651299;-60
2023/04/07 05:42:46;;;;;;;;;81.00;61.00;;;;;3.57;100.00;99340.25;6308446;20;3627330;-59
2023/04/07 05:45:16;;;;;;;;;85.33;62.67;;;;;3.45;100.00;99341.56;6311091;20;3646191;-60
2023/04/07 05:47:48;;;;;;;;;80.33;61.67;;;;;3.82;100.00;99350.75;6307249;20;2858711;-59
2023/04/07 05:50:18;;;;;;;;;89.00;68.33;;;;;3.74;100.00;99353.75;6308376;20;3665911;-59
2023/04/07 05:52:48;;;;;;;;;85.00;64.33;;;;;3.74;100.00;99349.28;6312704;20;3654461;-59
2023/04/07 05:55:18;;;;;;;;;83.67;65.33;;;;;3.68;100.00;99349.50;6314906;20;3648163;-59
2023/04/07 05:57:48;;;;;;;;;88.33;67.67;;;;;3.80;100.00;99350.84;6313296;20;3652350;-60
2023/04/07 06:00:18;;;;;;;;;80.00;60.67;;;;;3.76;100.00;99345.69;6312463;20;3624234;-59
2023/04/07 06:02:48;;;;;;;;;89.67;71.00;;;;;3.80;100.00;99345.53;6314173;20;3670108;-59
2023/04/07 06:05:18;;;;;;;;;88.00;71.67;;;;;3.93;100.00;99356.53;6283715;20;3666965;-58
2023/04/07 06:07:48;;;;;;;;;85.00;65.67;;;;;3.66;100.00;99355.81;6280337;20;3657550;-59
2023/04/07 06:10:18;;;;;;;;;84.67;62.33;;;;;3.70;100.00;99346.81;6309385;20;3650440;-59
2023/04/07 06:12:48;;;;;;;;;83.67;61.33;;;;;3.89;100.00;99353.09;6313323;20;3652444;-59
2023/04/07 06:15:17;;;;;;;;;78.67;58.00;;;;;3.69;100.00;99351.25;6282720;20;3629413;-59
2023/04/07 06:17:47;;;;;;;;;80.00;62.33;;;;;4.09;100.00;99348.81;6312841;20;3635778;-59
2023/04/07 06:20:18;;;;;;;;;82.67;61.33;;;;;4.28;100.00;99351.56;6310657;20;3638800;-59
2023/04/07 06:22:48;;;;;;;;;79.67;60.00;;;;;4.10;100.00;99351.38;6315196;20;3643056;-59
2023/04/07 06:25:18;;;;;;;;;76.00;59.00;;;;;4.40;100.00;99359.06;6310545;20;3627392;-59
2023/04/07 06:27:47;;;;;;;;;77.67;61.00;;;;;4.17;100.00;99355.53;6314408;20;2872303;-59
2023/04/07 06:30:17;;;;;;;;;73.00;56.33;;;;;4.65;100.00;99352.69;6311312;20;3617100;-60
2023/04/07 06:32:47;;;;;;;;;82.67;61.00;;;;;4.44;100.00;99354.47;6310868;20;3643164;-58
2023/04/07 06:35:17;;;;;;;;;82.67;59.00;;;;;4.40;100.00;99359.06;6316703;20;3655567;-60
2023/04/07 06:37:46;;;;;;;;;99.33;85.67;;;;;4.22;100.00;99357.16;6313257;20;3679463;-60
2023/04/07 06:40:16;;;;;;;;;136.67;117.67;;;;;4.53;100.00;99359.38;6312971;20;3726370;-60
2023/04/07 06:42:46;;;;;;;;;75.67;57.33;;;;;4.51;99.81;99362.13;6286350;20;3636742;-60
2023/04/07 06:45:15;;;;;;;;;102.00;86.67;;;;;4.57;99.88;99363.66;6312612;20;3683573;-60
2023/04/07 06:47:45;;;;;;;;;77.67;60.00;;;;;4.43;99.78;99372.19;6282662;20;3627501;-60
2023/04/07 06:50:19;;;;;;;;;79.33;58.67;;;;;4.11;100.00;99363.75;6313843;20;3641925;-60
2023/04/07 06:52:49;;;;;;;;;77.67;60.33;;;;;4.04;100.00;99359.63;6317254;20;2873255;-61
2023/04/07 06:55:18;;;;;;;;;76.67;57.33;;;;;4.48;100.00;99370.22;6314565;20;3631548;-59
2023/04/07 06:57:51;;;;;;;;;77.00;59.67;;;;;4.55;100.00;99373.47;6317975;20;2875349;-60
2023/04/07 07:00:21;;;;;;;;;75.00;54.33;;;;;4.43;100.00;99381.97;6313600;20;3647144;-60
2023/04/07 07:02:51;;;;;;;;;79.33;59.33;;;;;4.67;99.93;99382.75;6312126;20;3653526;-60
2023/04/07 07:05:22;;;;;;;;;75.67;58.67;;;;;4.65;99.49;99389.91;6313970;20;2865046;-61
2023/04/07 07:07:51;;;;;;;;;68.67;54.33;;;;;4.45;100.00;99391.63;6316407;20;3628424;-60
2023/04/07 07:10:21;;;;;;;;;68.00;55.50;;;;;4.21;100.00;99397.91;6310054;20;2877360;-61
2023/04/07 07:12:51;;;;;;;;;80.33;61.00;;;;;4.32;100.00;99388.59;6285128;20;3631599;-60
2023/04/07 07:15:21;;;;;;;;;69.67;53.00;;;;;4.24;100.00;99395.13;6316625;20;2883737;-60
2023/04/07 07:17:51;;;;;;;;;76.67;59.67;;;;;4.38;100.00;99398.09;6308981;20;3626348;-59
2023/04/07 07:20:22;;;;;;;;;76.33;55.67;;;;;4.55;100.00;99411.53;6315761;20;3636753;-59
2023/04/07 07:22:52;;;;;;;;;80.33;60.33;;;;;4.62;100.00;99399.75;6313258;20;3630637;-59
2023/04/07 07:25:22;;;;;;;;;76.33;58.00;;;;;4.40;99.64;99398.91;6313633;20;2877368;-60
2023/04/07 07:27:52;;;;;;;;;67.67;51.67;;;;;4.39;98.95;99411.31;6312467;20;3631563;-59
2023/04/07 07:30:23;;;;;;;;;65.00;50.67;;;;;4.65;96.65;99416.50;6313588;20;3630512;-59
2023/04/07 07:32:54;;;;;;;;;67.67;53.33;;;;;4.51;98.07;99417.06;6316300;20;2877471;-60
2023/04/07 07:35:24;;;;;;;;;63.00;49.33;;;;;4.62;97.68;99418.34;6313390;20;2861838;-59
2023/04/07 07:37:53;;;;;;;;;71.67;55.00;;;;;4.82;99.08;99420.19;6310970;20;3626531;-60
2023/04/07 07:40:23;;;;;;;;;70.67;54.67;;;;;4.84;96.98;99422.75;6315665;20;2882712;-59
2023/04/07 07:42:53;;;;;;;;;64.33;50.33;;;;;4.51;97.85;99417.94;6312005;20;2871219;-60
2023/04/07 07:45:23;;;;;;;;;74.33;57.33;;;;;4.60;98.45;99428.19;6310402;20;2892072;-60
2023/04/07 07:47:53;;;;;;;;;66.67;48.33;;;;;4.64;97.56;99431.59;6315750;20;2884875;-59
2023/04/07 07:50:22;;;;;;;;;64.00;53.50;;;;;4.86;99.21;99426.22;6308706;20;2869097;-60
2023/04/07 07:52:52;;;;;;;;;80.33;61.00;;;;;4.80;97.61;99434.47;6281997;20;3627469;-60
2023/04/07 07:55:21;;;;;;;;;49.00;36.00;;;;;4.48;98.47;99431.38;6313027;20;2875373;-59
2023/04/07 07:57:51;;;;;;;;;66.00;53.67;;;;;4.60;98.11;99436.16;6316046;20;2879534;-60
2023/04/07 08:00:22;;;;;;;;;65.67;51.67;;;;;4.53;97.37;99434.69;6313697;20;2883665;-60
2023/04/07 08:02:52;;;;;;;;;60.00;50.67;;;;;5.05;97.51;99435.19;6316076;20;2876400;-60
2023/04/07 08:05:22;;;;;;;;;64.33;49.00;;;;;5.10;96.11;99444.75;6313601;20;3636776;-60
2023/04/07 08:07:54;;;;;;;;;69.67;52.33;;;;;4.97;97.05;99442.59;6310956;20;3631543;-60
2023/04/07 08:10:24;;;;;;;;;70.33;54.00;;;;;5.17;96.05;99433.75;6311174;20;2887937;-60
2023/04/07 08:12:53;;;;;;;;;63.67;50.67;;;;;5.34;95.65;99438.34;6317119;20;2879601;-60
2023/04/07 08:15:22;;;;;;;;;63.00;48.00;;;;;5.25;95.01;99438.75;6315619;20;2875318;-59
2023/04/07 08:17:52;;;;;;;;;67.00;52.33;;;;;5.52;94.89;99438.47;6282032;20;3633637;-60
2023/04/07 08:20:25;;;;;;;;;65.00;50.67;;;;;5.57;92.63;99444.44;6312701;20;2875365;-60
2023/04/07 08:22:55;;;;;;;;;66.33;51.33;;;;;5.38;94.10;99442.59;6313958;20;3630451;-59
2023/04/07 08:25:24;;;;;;;;;60.00;48.00;;;;;5.31;94.79;99445.59;6313188;20;2861763;-60
2023/04/07 08:27:54;;;;;;;;;68.00;52.67;;;;;5.24;94.54;99437.03;6312687;20;3632665;-59
2023/04/07 08:30:24;;;;;;;;;66.67;51.00;;;;;5.55;94.51;99446.31;6312328;20;3648373;-60
2023/04/07 08:32:54;;;;;;;;;71.67;53.00;;;;;5.38;94.57;99445.28;6316160;20;3650344;-61
2023/04/07 08:35:23;;;;;;;;;69.00;52.00;;;;;5.50;94.27;99447.41;6314633;20;3641993;-61
2023/04/07 08:37:53;;;;;;;;;65.00;49.00;;;;;5.54;94.28;99444.59;6313786;20;3626446;-59
2023/04/07 08:40:22;;;;;;;;;62.50;49.00;;;;;5.38;94.23;99455.06;6314303;20;2870108;-60
2023/04/07 08:42:52;;;;;;;;;61.00;49.00;;;;;5.69;93.30;99449.22;6283290;20;2860740;-61
2023/04/07 08:45:21;;;;;;;;;64.00;50.33;;;;;5.36;92.57;99456.91;6278047;20;2872261;-60
2023/04/07 08:47:56;;;;;;;;;65.00;51.00;;;;;5.13;93.01;99445.47;6311601;20;3634686;-60
2023/04/07 08:50:27;;;;;;;;;64.50;50.50;;;;;5.50;92.22;99450.06;6307979;20;2875242;-60
2023/04/07 08:53:02;;;;;;;;;68.00;50.67;;;;;5.65;93.53;99453.81;6279056;20;3641952;-60
2023/04/07 08:55:35;;;;;;;;;62.50;50.50;;;;;5.50;93.21;99463.38;6312011;20;2863875;-60
2023/04/07 08:58:05;;;;;;;;;58.00;49.00;;;;;5.13;94.31;99461.44;6280847;20;2862864;-60
2023/04/07 09:00:34;;;;;;;;;63.50;50.50;;;;;5.30;94.96;99450.06;6277975;20;2872222;-60
2023/04/07 09:03:04;;;;;;;;;64.00;50.00;;;;;5.37;92.78;99459.53;6281087;20;2875428;-60
2023/04/07 09:05:34;;;;;;;;;64.00;51.00;;;;;5.83;94.10;99461.91;6307714;20;2872350;-60
2023/04/07 09:08:04;;;;;;;;;60.33;47.00;;;;;5.46;94.13;99458.25;6310192;20;3626432;-60
2023/04/07 09:10:35;;;;;;;;;61.00;49.00;;;;;5.62;93.50;99467.28;6308920;20;2885758;-60
2023/04/07 09:13:05;;;;;;;;;70.67;54.00;;;;;5.87;94.54;99453.72;6311672;20;3637776;-60
2023/04/07 09:15:35;;;;;;;;;72.00;55.33;;;;;5.70;94.25;99462.47;6309182;20;2858210;-60
2023/04/07 09:18:07;;;;;;;;;67.00;52.67;;;;;5.83;93.21;99465.44;6312013;20;2875434;-60
2023/04/07 09:21:01;;;;;;;;;58.00;48.00;;;;;5.96;92.73;99459.59;6306740;20;2860421;-60
2023/04/07 09:23:35;;;;;;;;;59.00;45.33;;;;;5.97;93.38;99459.50;6277259;20;2880643;-61
2023/04/07 09:26:17;;;;;;;;;65.33;52.33;;;;;6.25;93.51;99459.06;6312674;20;3618052;-60
2023/04/07 09:28:53;;;;;;;;;43.00;36.00;;;;;5.88;92.25;99465.22;6313811;20;2843097;-60
2023/04/07 09:31:44;;;;;;;;;61.00;48.00;;;;;6.00;91.82;99463.81;6287138;20;2893043;-60
2023/04/07 09:34:35;;;;;;;;;56.50;46.00;;;;;6.41;92.80;99463.69;6283199;20;2862916;-61
2023/04/07 09:37:10;;;;;;;;;63.67;51.00;;;;;6.45;90.83;99473.25;6283371;20;2877994;-60
2023/04/07 09:39:52;;;;;;;;;63.33;51.00;;;;;6.30;90.43;99473.06;6315820;20;2863922;-60
2023/04/07 09:42:22;;;;;;;;;61.00;48.33;;;;;6.16;89.41;99467.50;6316986;20;3625283;-60
2023/04/07 09:44:52;;;;;;;;;61.00;49.00;;;;;6.36;89.29;99475.41;6315934;20;2867039;-60
2023/04/07 09:47:31;;;;;;;;;60.00;49.33;;;;;6.54;88.35;99470.16;6314244;20;2873308;-60
2023/04/07 09:50:05;;;;;;;;;60.00;50.67;;;;;6.57;89.53;99473.53;6317777;20;2860775;-61
2023/04/07 09:52:52;;;;;;;;;63.00;51.00;;;;;6.53;90.05;99468.41;6315007;20;3602470;-60
2023/04/07 09:55:24;;;;;;;;;61.33;47.33;;;;;6.88;89.55;99473.81;6316077;20;3629011;-61
2023/04/07 09:57:55;;;;;;;;;60.00;47.33;;;;;6.70;88.91;99471.13;6315791;20;2873369;-61
2023/04/07 10:00:25;;;;;;;;;59.33;44.00;;;;;6.42;88.31;99476.91;6312603;20;2877496;-60
2023/04/07 10:02:56;;;;;;;;;58.33;46.67;;;;;6.92;88.46;99472.72;6314069;20;3609666;-60
2023/04/07 10:05:35;;;;;;;;;101.75;81.50;;;;;6.62;88.67;99473.31;6315870;20;4450389;-61
2023/04/07 10:08:06;;;;;;;;;67.33;51.33;;;;;6.64;88.37;99471.44;6312194;20;3637817;-60
2023/04/07 10:10:39;;;;;;;;;65.00;49.33;;;;;6.49;87.03;99461.50;6303240;20;3635777;-61
2023/04/07 10:13:09;;;;;;;;;56.67;46.33;;;;;6.68;89.38;99472.13;6312834;20;3606522;-61
2023/04/07 10:15:39;;;;;;;;;57.50;45.00;;;;;6.33;88.56;99467.56;6316240;20;2852439;-61
2023/04/07 10:18:09;;;;;;;;;60.00;45.67;;;;;6.57;89.27;99470.00;6281767;20;2876323;-61
2023/04/07 10:20:41;;;;;;;;;56.33;45.33;;;;;6.55;90.56;99467.38;6314204;20;3612116;-61
2023/04/07 10:23:40;;;;;;;;;65.67;48.33;;;;;6.82;89.02;99467.84;6315036;20;3653418;-60
2023/04/07 10:26:11;;;;;;;;;65.33;50.67;;;;;6.66;88.08;99464.22;6314067;20;2883703;-61
2023/04/07 10:28:45;;;;;;;;;59.33;49.00;;;;;6.84;88.71;99470.44;6314649;20;2850265;-61
2023/04/07 10:31:16;;;;;;;;;63.67;50.00;;;;;6.90;87.93;99472.81;6311954;20;3616972;-61
2023/04/07 10:33:51;;;;;;;;;56.33;46.00;;;;;6.72;86.84;99469.25;6315464;20;2867799;-61
2023/04/07 10:36:22;;;;;;;;;66.67;51.33;;;;;6.82;86.58;99481.19;6310164;20;3624173;-60
2023/04/07 10:39:06;;;;;;;;;81.00;61.33;;;;;6.87;88.58;99482.75;6314484;20;3644066;-61
2023/04/07 10:41:42;;;;;;;;;71.00;54.00;;;;;6.86;88.95;99471.22;6311603;20;3626358;-61
2023/04/07 10:44:40;;;;;;;;;57.33;48.33;;;;;7.00;87.67;99483.88;6313606;20;2876398;-61
2023/04/07 10:47:11;;;;;;;;;61.00;47.00;;;;;7.05;87.40;99476.50;6313969;20;3630536;-61
2023/04/07 10:50:22;;;;;;;;;64.67;52.00;;;;;7.13;86.95;99482.31;6314720;20;2876731;-60
2023/04/07 10:53:11;;;;;;;;;57.50;44.50;;;;;6.95;85.53;99472.56;6312388;20;3490896;-60
2023/04/07 10:55:46;;;;;;;;;62.00;48.00;;;;;7.57;86.68;99479.16;6313810;20;2857798;-61
2023/04/07 10:58:30;;;;;;;;;53.00;44.00;;;;;7.48;83.57;99482.31;6311076;20;2850311;-61
2023/04/07 11:01:03;;;;;;;;;61.00;47.00;;;;;7.36;84.23;99483.81;6278367;20;3619085;-61
2023/04/07 11:03:56;;;;;;;;;61.00;46.50;;;;;7.18;83.45;99466.06;6314161;20;2860747;-62
2023/04/07 11:06:26;;;;;;;;;54.33;39.33;;;;;7.02;83.51;99476.66;6282499;20;2877355;-61
2023/04/07 11:08:55;;;;;;;;;54.50;45.00;;;;;7.19;85.35;99484.69;6312698;20;2852520;-60
2023/04/07 11:11:40;;;;;;;;;54.00;43.50;;;;;6.86;85.36;99479.22;6281077;20;2862929;-61
2023/04/07 11:14:09;;;;;;;;;52.50;43.50;;;;;6.72;85.43;99482.59;6280812;20;2853402;-62
2023/04/07 11:16:42;;;;;;;;;58.00;48.00;;;;;7.09;85.28;99480.75;6282458;20;2860787;-61
2023/04/07 11:19:11;;;;;;;;;55.50;42.50;;;;;6.98;85.35;99488.44;6281125;20;2858645;-61
2023/04/07 11:21:40;;;;;;;;;53.00;42.00;;;;;6.79;86.00;99483.13;6281703;20;2859623;-61
2023/04/07 11:24:10;;;;;;;;;56.00;42.00;;;;;6.87;84.95;99483.63;6280097;20;2877353;-61
2023/04/07 11:26:42;;;;;;;;;60.50;49.00;;;;;6.70;85.28;99489.78;6311828;20;2861774;-61